sensor_id;sensor_type;location;lat;lon;timestamp;pressure;altitude;pressure_sealevel;temperature;humidity
15229;BME280;7717;47.792;12.076;2024-03-08T00:00:32;96059.75;;;-3.06;100.00
15229;BME280;7717;47.792;12.076;2024-03-08T00:02:58;96054.22;;;-3.14;100.00
15229;BME280;7717;47.792;12.076;2024-03-08T00:05:24;96058.25;;;-3.10;100.00
15229;BME280;7717;47.792;12.076;2024-03-08T00:07:49;96057.25;;;-3.07;100.00
15229;BME280;7717;47.792;12.076;2024-03-08T00:10:14;96060.91;;;-3.11;100.00
15229;BME280;7717;47.792;12.076;2024-03-08T00:12:43;96038.16;;;-3.33;100.00
15229;BME280;7717;47.792;12.076;2024-03-08T00:15:16;96056.31;;;-3.21;100.00
15229;BME280;7717;47.792;12.076;2024-03-08T00:17:41;96042.66;;;-3.37;100.00
15229;BME280;7717;47.792;12.076;2024-03-08T00:20:07;96054.53;;;-3.48;100.00
15229;BME280;7717;47.792;12.076;2024-03-08T00:22:39;96039.69;;;-3.59;100.00
15229;BME280;7717;47.792;12.076;2024-03-08T00:25:05;96041.78;;;-3.66;100.00
15229;BME280;7717;47.792;12.076;2024-03-08T00:27:34;96031.56;;;-3.67;100.00
15229;BME280;7717;47.792;12.076;2024-03-08T00:30:00;96029.78;;;-3.81;100.00
15229;BME280;7717;47.792;12.076;2024-03-08T00:32:26;96021.81;;;-3.92;100.00
15229;BME280;7717;47.792;12.076;2024-03-08T00:34:55;96042.28;;;-3.89;100.00
15229;BME280;7717;47.792;12.076;2024-03-08T00:37:21;96047.00;;;-3.37;100.00
15229;BME280;7717;47.792;12.076;2024-03-08T00:39:52;96016.66;;;-3.62;100.00
15229;BME280;7717;47.792;12.076;2024-03-08T00:42:19;96038.50;;;-3.53;100.00
15229;BME280;7717;47.792;12.076;2024-03-08T00:44:44;96026.88;;;-3.61;100.00
15229;BME280;7717;47.792;12.076;2024-03-08T00:47:10;96034.53;;;-3.59;100.00
15229;BME280;7717;47.792;12.076;2024-03-08T00:49:35;96031.41;;;-3.50;100.00
15229;BME280;7717;47.792;12.076;2024-03-08T00:52:07;96026.25;;;-3.50;100.00
15229;BME280;7717;47.792;12.076;2024-03-08T00:54:33;96030.66;;;-3.52;100.00
15229;BME280;7717;47.792;12.076;2024-03-08T00:56:59;96028.44;;;-3.58;100.00
15229;BME280;7717;47.792;12.076;2024-03-08T00:59:28;96016.09;;;-3.67;100.00
15229;BME280;7717;47.792;12.076;2024-03-08T01:01:53;96019.53;;;-3.52;100.00
15229;BME280;7717;47.792;12.076;2024-03-08T01:04:20;96024.59;;;-3.51;100.00
15229;BME280;7717;47.792;12.076;2024-03-08T01:06:46;96007.66;;;-3.55;100.00
15229;BME280;7717;47.792;12.076;2024-03-08T01:09:12;95996.03;;;-3.62;100.00
15229;BME280;7717;47.792;12.076;2024-03-08T01:11:38;96010.84;;;-3.66;100.00
15229;BME280;7717;47.792;12.076;2024-03-08T01:14:03;95989.00;;;-3.88;100.00
15229;BME280;7717;47.792;12.076;2024-03-08T01:16:28;95998.47;;;-3.89;100.00
15229;BME280;7717;47.792;12.076;2024-03-08T01:18:54;95979.44;;;-3.86;100.00
15229;BME280;7717;47.792;12.076;2024-03-08T01:21:19;95997.41;;;-3.56;100.00
15229;BME280;7717;47.792;12.076;2024-03-08T01:23:45;95994.19;;;-3.74;100.00
15229;BME280;7717;47.792;12.076;2024-03-08T01:26:10;95987.41;;;-3.91;100.00
15229;BME280;7717;47.792;12.076;2024-03-08T01:28:36;95991.13;;;-3.81;100.00
15229;BME280;7717;47.792;12.076;2024-03-08T01:31:02;95987.16;;;-3.72;100.00
15229;BME280;7717;47.792;12.076;2024-03-08T01:33:29;95981.53;;;-3.79;100.00
15229;BME280;7717;47.792;12.076;2024-03-08T01:35:55;95982.75;;;-3.70;100.00
15229;BME280;7717;47.792;12.076;2024-03-08T01:38:20;95978.06;;;-3.64;100.00
15229;BME280;7717;47.792;12.076;2024-03-08T01:40:51;95961.50;;;-3.74;100.00
15229;BME280;7717;47.792;12.076;2024-03-08T01:43:18;95970.22;;;-3.76;100.00
15229;BME280;7717;47.792;12.076;2024-03-08T01:45:44;95967.00;;;-3.66;100.00
15229;BME280;7717;47.792;12.076;2024-03-08T01:48:09;95963.50;;;-3.65;100.00
15229;BME280;7717;47.792;12.076;2024-03-08T01:50:35;95956.69;;;-3.51;100.00
15229;BME280;7717;47.792;12.076;2024-03-08T01:53:01;95964.91;;;-3.31;100.00
15229;BME280;7717;47.792;12.076;2024-03-08T01:55:27;95964.44;;;-3.23;100.00
15229;BME280;7717;47.792;12.076;2024-03-08T01:57:53;95965.09;;;-3.19;100.00
15229;BME280;7717;47.792;12.076;2024-03-08T02:00:19;95959.34;;;-3.10;100.00
15229;BME280;7717;47.792;12.076;2024-03-08T02:02:46;95952.72;;;-3.00;100.00
15229;BME280;7717;47.792;12.076;2024-03-08T02:05:12;95953.41;;;-2.84;100.00
15229;BME280;7717;47.792;12.076;2024-03-08T02:07:41;95947.38;;;-2.70;100.00
15229;BME280;7717;47.792;12.076;2024-03-08T02:10:09;95949.47;;;-2.63;100.00
15229;BME280;7717;47.792;12.076;2024-03-08T02:12:35;95935.34;;;-2.57;100.00
15229;BME280;7717;47.792;12.076;2024-03-08T02:15:00;95937.44;;;-2.50;100.00
15229;BME280;7717;47.792;12.076;2024-03-08T02:17:25;95931.44;;;-2.50;100.00
15229;BME280;7717;47.792;12.076;2024-03-08T02:19:51;95927.53;;;-2.43;100.00
15229;BME280;7717;47.792;12.076;2024-03-08T02:22:16;95924.78;;;-2.40;100.00
15229;BME280;7717;47.792;12.076;2024-03-08T02:24:42;95925.47;;;-2.38;100.00
15229;BME280;7717;47.792;12.076;2024-03-08T02:27:07;95892.59;;;-2.49;100.00
15229;BME280;7717;47.792;12.076;2024-03-08T02:29:33;95919.63;;;-2.27;100.00
15229;BME280;7717;47.792;12.076;2024-03-08T02:31:59;95916.31;;;-2.29;100.00
15229;BME280;7717;47.792;12.076;2024-03-08T02:34:24;95920.78;;;-2.19;100.00
15229;BME280;7717;47.792;12.076;2024-03-08T02:36:50;95916.16;;;-2.14;100.00
15229;BME280;7717;47.792;12.076;2024-03-08T02:39:16;95892.03;;;-2.27;100.00
15229;BME280;7717;47.792;12.076;2024-03-08T02:41:41;95887.41;;;-2.22;100.00
15229;BME280;7717;47.792;12.076;2024-03-08T02:44:07;95917.19;;;-2.04;100.00
15229;BME280;7717;47.792;12.076;2024-03-08T02:46:33;95907.50;;;-2.00;100.00
15229;BME280;7717;47.792;12.076;2024-03-08T02:48:58;95903.84;;;-1.97;100.00
15229;BME280;7717;47.792;12.076;2024-03-08T02:51:23;95906.75;;;-1.89;100.00
15229;BME280;7717;47.792;12.076;2024-03-08T02:53:51;95905.63;;;-1.85;100.00
15229;BME280;7717;47.792;12.076;2024-03-08T02:56:17;95911.75;;;-1.86;100.00
15229;BME280;7717;47.792;12.076;2024-03-08T02:58:43;95907.50;;;-1.87;100.00
15229;BME280;7717;47.792;12.076;2024-03-08T03:01:09;95896.41;;;-1.89;100.00
15229;BME280;7717;47.792;12.076;2024-03-08T03:03:35;95907.41;;;-1.73;100.00
15229;BME280;7717;47.792;12.076;2024-03-08T03:06:01;95907.28;;;-1.72;100.00
15229;BME280;7717;47.792;12.076;2024-03-08T03:08:26;95886.16;;;-1.91;100.00
15229;BME280;7717;47.792;12.076;2024-03-08T03:10:51;95903.97;;;-1.74;100.00
15229;BME280;7717;47.792;12.076;2024-03-08T03:13:17;95909.56;;;-1.80;100.00
15229;BME280;7717;47.792;12.076;2024-03-08T03:15:46;95896.59;;;-1.92;100.00
15229;BME280;7717;47.792;12.076;2024-03-08T03:18:11;95897.84;;;-1.98;100.00
15229;BME280;7717;47.792;12.076;2024-03-08T03:20:37;95898.78;;;-1.99;100.00
15229;BME280;7717;47.792;12.076;2024-03-08T03:23:06;95892.16;;;-1.90;100.00
15229;BME280;7717;47.792;12.076;2024-03-08T03:25:33;95902.22;;;-1.73;100.00
15229;BME280;7717;47.792;12.076;2024-03-08T03:28:03;95869.72;;;-1.77;100.00
15229;BME280;7717;47.792;12.076;2024-03-08T03:30:30;95857.84;;;-1.80;100.00
15229;BME280;7717;47.792;12.076;2024-03-08T03:33:02;95893.41;;;-1.58;100.00
15229;BME280;7717;47.792;12.076;2024-03-08T03:35:32;95888.31;;;-1.60;100.00
15229;BME280;7717;47.792;12.076;2024-03-08T03:37:57;95894.22;;;-1.57;100.00
15229;BME280;7717;47.792;12.076;2024-03-08T03:40:36;95860.00;;;-1.74;100.00
15229;BME280;7717;47.792;12.076;2024-03-08T03:43:02;95848.13;;;-1.89;100.00
15229;BME280;7717;47.792;12.076;2024-03-08T03:45:28;95870.13;;;-1.71;100.00
15229;BME280;7717;47.792;12.076;2024-03-08T03:47:53;95878.41;;;-1.66;100.00
15229;BME280;7717;47.792;12.076;2024-03-08T03:50:19;95856.88;;;-1.79;100.00
15229;BME280;7717;47.792;12.076;2024-03-08T03:52:46;95865.19;;;-1.74;100.00
15229;BME280;7717;47.792;12.076;2024-03-08T03:55:12;95855.25;;;-1.80;100.00
15229;BME280;7717;47.792;12.076;2024-03-08T03:57:38;95876.03;;;-1.69;100.00
15229;BME280;7717;47.792;12.076;2024-03-08T04:00:04;95865.38;;;-1.64;100.00
15229;BME280;7717;47.792;12.076;2024-03-08T04:02:31;95877.69;;;-1.55;100.00
15229;BME280;7717;47.792;12.076;2024-03-08T04:04:56;95857.50;;;-1.63;100.00
15229;BME280;7717;47.792;12.076;2024-03-08T04:07:22;95868.16;;;-1.54;100.00
15229;BME280;7717;47.792;12.076;2024-03-08T04:09:47;95874.56;;;-1.47;100.00
15229;BME280;7717;47.792;12.076;2024-03-08T04:12:12;95874.44;;;-1.46;100.00
15229;BME280;7717;47.792;12.076;2024-03-08T04:14:41;95882.75;;;-1.41;100.00
15229;BME280;7717;47.792;12.076;2024-03-08T04:17:07;95869.25;;;-1.46;100.00
15229;BME280;7717;47.792;12.076;2024-03-08T04:19:34;95867.09;;;-1.52;100.00
15229;BME280;7717;47.792;12.076;2024-03-08T04:22:00;95866.50;;;-1.55;100.00
15229;BME280;7717;47.792;12.076;2024-03-08T04:24:26;95860.91;;;-1.49;100.00
15229;BME280;7717;47.792;12.076;2024-03-08T04:26:52;95847.75;;;-1.59;100.00
15229;BME280;7717;47.792;12.076;2024-03-08T04:29:18;95869.06;;;-1.43;100.00
15229;BME280;7717;47.792;12.076;2024-03-08T04:31:43;95862.88;;;-1.40;100.00
15229;BME280;7717;47.792;12.076;2024-03-08T04:34:09;95823.59;;;-1.71;100.00
15229;BME280;7717;47.792;12.076;2024-03-08T04:36:35;95852.63;;;-1.54;100.00
15229;BME280;7717;47.792;12.076;2024-03-08T04:39:00;95857.28;;;-1.47;100.00
15229;BME280;7717;47.792;12.076;2024-03-08T04:41:25;95850.75;;;-1.40;100.00
15229;BME280;7717;47.792;12.076;2024-03-08T04:43:51;95855.09;;;-1.40;100.00
15229;BME280;7717;47.792;12.076;2024-03-08T04:46:17;95854.97;;;-1.39;100.00
15229;BME280;7717;47.792;12.076;2024-03-08T04:48:42;95848.03;;;-1.38;100.00
15229;BME280;7717;47.792;12.076;2024-03-08T04:51:08;95843.72;;;-1.50;100.00
15229;BME280;7717;47.792;12.076;2024-03-08T04:53:34;95854.25;;;-1.28;100.00
15229;BME280;7717;47.792;12.076;2024-03-08T04:56:00;95826.63;;;-1.40;100.00
15229;BME280;7717;47.792;12.076;2024-03-08T04:58:25;95857.91;;;-1.20;100.00
15229;BME280;7717;47.792;12.076;2024-03-08T05:00:51;95846.34;;;-1.14;100.00
15229;BME280;7717;47.792;12.076;2024-03-08T05:03:16;95850.88;;;-1.17;100.00
15229;BME280;7717;47.792;12.076;2024-03-08T05:05:41;95845.31;;;-1.24;100.00
15229;BME280;7717;47.792;12.076;2024-03-08T05:08:07;95813.16;;;-1.45;100.00
15229;BME280;7717;47.792;12.076;2024-03-08T05:10:32;95855.56;;;-1.23;100.00
15229;BME280;7717;47.792;12.076;2024-03-08T05:12:58;95850.16;;;-1.20;100.00
15229;BME280;7717;47.792;12.076;2024-03-08T05:15:23;95844.28;;;-1.22;100.00
15229;BME280;7717;47.792;12.076;2024-03-08T05:17:48;95832.59;;;-1.27;100.00
15229;BME280;7717;47.792;12.076;2024-03-08T05:20:15;95844.47;;;-1.25;100.00
15229;BME280;7717;47.792;12.076;2024-03-08T05:22:41;95831.34;;;-1.22;100.00
15229;BME280;7717;47.792;12.076;2024-03-08T05:25:06;95832.16;;;-1.21;100.00
15229;BME280;7717;47.792;12.076;2024-03-08T05:27:34;95820.59;;;-1.28;100.00
15229;BME280;7717;47.792;12.076;2024-03-08T05:29:59;95830.28;;;-1.19;100.00
15229;BME280;7717;47.792;12.076;2024-03-08T05:32:25;95828.22;;;-1.14;100.00
15229;BME280;7717;47.792;12.076;2024-03-08T05:34:51;95829.16;;;-1.15;100.00
15229;BME280;7717;47.792;12.076;2024-03-08T05:37:17;95821.59;;;-1.18;100.00
15229;BME280;7717;47.792;12.076;2024-03-08T05:39:42;95829.16;;;-1.15;100.00
15229;BME280;7717;47.792;12.076;2024-03-08T05:42:07;95830.56;;;-1.11;100.00
15229;BME280;7717;47.792;12.076;2024-03-08T05:44:36;95825.72;;;-1.15;100.00
15229;BME280;7717;47.792;12.076;2024-03-08T05:47:01;95823.53;;;-1.09;100.00
15229;BME280;7717;47.792;12.076;2024-03-08T05:49:26;95830.03;;;-1.03;100.00
15229;BME280;7717;47.792;12.076;2024-03-08T05:51:52;95825.78;;;-1.04;100.00
15229;BME280;7717;47.792;12.076;2024-03-08T05:54:19;95830.94;;;-1.04;100.00
15229;BME280;7717;47.792;12.076;2024-03-08T05:56:47;95780.22;;;-1.31;100.00
15229;BME280;7717;47.792;12.076;2024-03-08T05:59:12;95834.03;;;-0.99;100.00
15229;BME280;7717;47.792;12.076;2024-03-08T06:01:38;95814.59;;;-1.05;100.00
15229;BME280;7717;47.792;12.076;2024-03-08T06:04:06;95793.50;;;-1.11;100.00
15229;BME280;7717;47.792;12.076;2024-03-08T06:06:32;95819.47;;;-1.00;100.00
15229;BME280;7717;47.792;12.076;2024-03-08T06:08:58;95799.13;;;-1.17;100.00
15229;BME280;7717;47.792;12.076;2024-03-08T06:11:24;95796.19;;;-1.13;100.00
15229;BME280;7717;47.792;12.076;2024-03-08T06:13:52;95803.31;;;-1.04;100.00
15229;BME280;7717;47.792;12.076;2024-03-08T06:16:17;95821.09;;;-0.99;100.00
15229;BME280;7717;47.792;12.076;2024-03-08T06:18:43;95812.28;;;-0.97;100.00
15229;BME280;7717;47.792;12.076;2024-03-08T06:21:08;95811.28;;;-0.83;100.00
15229;BME280;7717;47.792;12.076;2024-03-08T06:23:36;95806.44;;;-0.88;100.00
15229;BME280;7717;47.792;12.076;2024-03-08T06:26:07;95825.38;;;-0.63;100.00
15229;BME280;7717;47.792;12.076;2024-03-08T06:28:33;95820.00;;;-0.60;100.00
15229;BME280;7717;47.792;12.076;2024-03-08T06:31:00;95803.94;;;-0.65;100.00
15229;BME280;7717;47.792;12.076;2024-03-08T06:33:25;95821.78;;;-0.50;100.00
15229;BME280;7717;47.792;12.076;2024-03-08T06:35:54;95819.41;;;-0.53;100.00
15229;BME280;7717;47.792;12.076;2024-03-08T06:38:23;95822.38;;;-0.46;100.00
15229;BME280;7717;47.792;12.076;2024-03-08T06:40:49;95819.22;;;-0.38;100.00
15229;BME280;7717;47.792;12.076;2024-03-08T06:43:16;95793.34;;;-0.62;100.00
15229;BME280;7717;47.792;12.076;2024-03-08T06:45:43;95825.22;;;-0.38;100.00
15229;BME280;7717;47.792;12.076;2024-03-08T06:48:14;95787.34;;;-0.63;100.00
15229;BME280;7717;47.792;12.076;2024-03-08T06:50:39;95837.50;;;-0.29;100.00
15229;BME280;7717;47.792;12.076;2024-03-08T06:53:05;95824.31;;;-0.26;100.00
15229;BME280;7717;47.792;12.076;2024-03-08T06:55:31;95812.63;;;-0.43;100.00
15229;BME280;7717;47.792;12.076;2024-03-08T06:57:56;95819.13;;;-0.26;100.00
15229;BME280;7717;47.792;12.076;2024-03-08T07:00:23;95828.00;;;-0.17;100.00
15229;BME280;7717;47.792;12.076;2024-03-08T07:02:52;95828.72;;;-0.04;100.00
15229;BME280;7717;47.792;12.076;2024-03-08T07:05:19;95823.22;;;0.12;100.00
15229;BME280;7717;47.792;12.076;2024-03-08T07:07:44;95811.28;;;0.09;100.00
15229;BME280;7717;47.792;12.076;2024-03-08T07:10:10;95818.97;;;0.11;100.00
15229;BME280;7717;47.792;12.076;2024-03-08T07:12:40;95811.53;;;0.17;100.00
15229;BME280;7717;47.792;12.076;2024-03-08T07:15:06;95810.59;;;0.18;100.00
15229;BME280;7717;47.792;12.076;2024-03-08T07:17:31;95820.13;;;0.29;100.00
15229;BME280;7717;47.792;12.076;2024-03-08T07:19:59;95815.06;;;0.38;100.00
15229;BME280;7717;47.792;12.076;2024-03-08T07:22:32;95811.06;;;0.46;100.00
15229;BME280;7717;47.792;12.076;2024-03-08T07:24:57;95809.16;;;0.59;100.00
15229;BME280;7717;47.792;12.076;2024-03-08T07:27:41;95796.38;;;0.67;100.00
15229;BME280;7717;47.792;12.076;2024-03-08T07:30:07;95780.34;;;0.62;100.00
15229;BME280;7717;47.792;12.076;2024-03-08T07:32:35;95799.66;;;0.80;100.00
15229;BME280;7717;47.792;12.076;2024-03-08T07:35:00;95789.38;;;0.90;100.00
15229;BME280;7717;47.792;12.076;2024-03-08T07:37:27;95793.88;;;0.88;100.00
15229;BME280;7717;47.792;12.076;2024-03-08T07:39:53;95795.97;;;0.94;100.00
15229;BME280;7717;47.792;12.076;2024-03-08T07:42:18;95793.56;;;0.70;100.00
15229;BME280;7717;47.792;12.076;2024-03-08T07:44:43;95795.41;;;0.90;100.00
15229;BME280;7717;47.792;12.076;2024-03-08T07:47:11;95791.31;;;1.19;100.00
15229;BME280;7717;47.792;12.076;2024-03-08T07:49:37;95786.09;;;1.51;100.00
15229;BME280;7717;47.792;12.076;2024-03-08T07:52:03;95789.63;;;1.92;100.00
15229;BME280;7717;47.792;12.076;2024-03-08T07:54:30;95784.13;;;2.16;100.00
15229;BME280;7717;47.792;12.076;2024-03-08T07:56:55;95786.44;;;1.88;100.00
15229;BME280;7717;47.792;12.076;2024-03-08T07:59:20;95769.16;;;1.57;100.00
15229;BME280;7717;47.792;12.076;2024-03-08T08:01:46;95785.81;;;1.54;100.00
15229;BME280;7717;47.792;12.076;2024-03-08T08:04:12;95786.66;;;1.76;100.00
15229;BME280;7717;47.792;12.076;2024-03-08T08:06:39;95779.75;;;1.65;100.00
15229;BME280;7717;47.792;12.076;2024-03-08T08:09:07;95779.47;;;1.68;100.00
15229;BME280;7717;47.792;12.076;2024-03-08T08:11:40;95774.34;;;1.78;100.00
15229;BME280;7717;47.792;12.076;2024-03-08T08:14:06;95770.84;;;1.88;100.00
15229;BME280;7717;47.792;12.076;2024-03-08T08:16:35;95773.28;;;2.11;100.00
15229;BME280;7717;47.792;12.076;2024-03-08T08:19:02;95768.16;;;2.30;100.00
15229;BME280;7717;47.792;12.076;2024-03-08T08:21:35;95734.34;;;2.39;100.00
15229;BME280;7717;47.792;12.076;2024-03-08T08:24:03;95748.59;;;2.85;100.00
15229;BME280;7717;47.792;12.076;2024-03-08T08:26:28;95762.19;;;3.27;100.00
15229;BME280;7717;47.792;12.076;2024-03-08T08:28:53;95760.41;;;3.47;100.00
15229;BME280;7717;47.792;12.076;2024-03-08T08:31:19;95755.75;;;3.41;100.00
15229;BME280;7717;47.792;12.076;2024-03-08T08:33:45;95755.63;;;3.23;100.00
15229;BME280;7717;47.792;12.076;2024-03-08T08:36:10;95752.47;;;3.29;99.14
15229;BME280;7717;47.792;12.076;2024-03-08T08:38:35;95737.78;;;3.38;100.00
15229;BME280;7717;47.792;12.076;2024-03-08T08:41:01;95747.75;;;3.62;100.00
15229;BME280;7717;47.792;12.076;2024-03-08T08:43:27;95712.81;;;3.16;97.68
15229;BME280;7717;47.792;12.076;2024-03-08T08:45:53;95706.47;;;2.99;99.44
15229;BME280;7717;47.792;12.076;2024-03-08T08:48:20;95742.72;;;3.22;99.92
15229;BME280;7717;47.792;12.076;2024-03-08T08:50:45;95736.41;;;3.43;99.72
15229;BME280;7717;47.792;12.076;2024-03-08T08:53:12;95732.78;;;3.64;100.00
15229;BME280;7717;47.792;12.076;2024-03-08T08:55:40;95730.78;;;4.04;99.21
15229;BME280;7717;47.792;12.076;2024-03-08T08:58:05;95726.13;;;3.98;96.54
15229;BME280;7717;47.792;12.076;2024-03-08T09:00:33;95707.34;;;3.85;98.25
15229;BME280;7717;47.792;12.076;2024-03-08T09:03:00;95714.53;;;4.10;98.63
15229;BME280;7717;47.792;12.076;2024-03-08T09:05:25;95726.25;;;4.33;93.81
15229;BME280;7717;47.792;12.076;2024-03-08T09:07:51;95721.69;;;4.90;97.50
15229;BME280;7717;47.792;12.076;2024-03-08T09:10:18;95711.91;;;7.39;95.62
15229;BME280;7717;47.792;12.076;2024-03-08T09:12:44;95685.34;;;9.31;87.63
15229;BME280;7717;47.792;12.076;2024-03-08T09:15:09;95687.72;;;9.86;88.44
15229;BME280;7717;47.792;12.076;2024-03-08T09:17:37;95676.97;;;12.18;75.80
15229;BME280;7717;47.792;12.076;2024-03-08T09:20:08;95675.88;;;12.40;79.77
15229;BME280;7717;47.792;12.076;2024-03-08T09:22:35;95661.66;;;12.89;62.84
15229;BME280;7717;47.792;12.076;2024-03-08T09:25:01;95661.63;;;14.28;77.93
15229;BME280;7717;47.792;12.076;2024-03-08T09:27:27;95649.19;;;13.76;72.52
15229;BME280;7717;47.792;12.076;2024-03-08T09:29:53;95665.50;;;14.19;75.78
15229;BME280;7717;47.792;12.076;2024-03-08T09:32:18;95660.00;;;15.36;66.74
15229;BME280;7717;47.792;12.076;2024-03-08T09:34:44;95655.13;;;13.85;61.32
15229;BME280;7717;47.792;12.076;2024-03-08T09:37:09;95651.56;;;15.53;72.96
15229;BME280;7717;47.792;12.076;2024-03-08T09:39:35;95648.53;;;15.04;71.17
15229;BME280;7717;47.792;12.076;2024-03-08T09:42:01;95648.63;;;15.23;66.32
15229;BME280;7717;47.792;12.076;2024-03-08T09:44:26;95646.78;;;15.23;65.76
15229;BME280;7717;47.792;12.076;2024-03-08T09:46:54;95642.25;;;14.92;71.37
15229;BME280;7717;47.792;12.076;2024-03-08T09:49:20;95636.38;;;15.60;68.33
15229;BME280;7717;47.792;12.076;2024-03-08T09:51:46;95647.13;;;15.96;69.18
15229;BME280;7717;47.792;12.076;2024-03-08T09:54:12;95644.53;;;15.27;69.71
15229;BME280;7717;47.792;12.076;2024-03-08T09:56:39;95635.97;;;15.56;59.64
15229;BME280;7717;47.792;12.076;2024-03-08T09:59:06;95653.28;;;13.79;68.89
15229;BME280;7717;47.792;12.076;2024-03-08T10:01:51;95639.53;;;15.75;68.36
15229;BME280;7717;47.792;12.076;2024-03-08T10:04:24;95634.41;;;15.04;61.91
15229;BME280;7717;47.792;12.076;2024-03-08T10:06:51;95631.59;;;15.93;60.94
15229;BME280;7717;47.792;12.076;2024-03-08T10:09:17;95626.72;;;16.51;67.46
15229;BME280;7717;47.792;12.076;2024-03-08T10:11:42;95622.09;;;15.54;69.29
15229;BME280;7717;47.792;12.076;2024-03-08T10:14:11;95626.53;;;14.84;62.03
15229;BME280;7717;47.792;12.076;2024-03-08T10:16:38;95622.19;;;12.53;53.23
15229;BME280;7717;47.792;12.076;2024-03-08T10:19:05;95630.97;;;15.35;66.69
15229;BME280;7717;47.792;12.076;2024-03-08T10:21:32;95625.56;;;15.55;63.70
15229;BME280;7717;47.792;12.076;2024-03-08T10:23:58;95607.84;;;16.53;65.23
15229;BME280;7717;47.792;12.076;2024-03-08T10:26:24;95600.66;;;17.08;64.84
15229;BME280;7717;47.792;12.076;2024-03-08T10:28:53;95606.59;;;17.22;61.20
15229;BME280;7717;47.792;12.076;2024-03-08T10:31:20;95598.66;;;16.12;66.55
15229;BME280;7717;47.792;12.076;2024-03-08T10:33:47;95592.72;;;17.31;66.25
15229;BME280;7717;47.792;12.076;2024-03-08T10:36:13;95589.59;;;18.11;62.12
15229;BME280;7717;47.792;12.076;2024-03-08T10:38:41;95600.00;;;16.76;46.19
15229;BME280;7717;47.792;12.076;2024-03-08T10:41:10;95589.13;;;17.91;54.53
15229;BME280;7717;47.792;12.076;2024-03-08T10:49:25;95593.16;;;16.98;58.35
15229;BME280;7717;47.792;12.076;2024-03-08T10:51:51;95580.84;;;16.86;60.99
15229;BME280;7717;47.792;12.076;2024-03-08T10:54:18;95550.69;;;17.15;58.50
15229;BME280;7717;47.792;12.076;2024-03-08T10:56:46;95581.31;;;16.64;51.97
15229;BME280;7717;47.792;12.076;2024-03-08T10:59:14;95573.00;;;17.74;63.95
15229;BME280;7717;47.792;12.076;2024-03-08T11:01:40;95555.53;;;17.06;56.54
15229;BME280;7717;47.792;12.076;2024-03-08T11:04:06;95577.97;;;16.14;52.24
15229;BME280;7717;47.792;12.076;2024-03-08T11:09:11;95558.94;;;18.25;44.12
15229;BME280;7717;47.792;12.076;2024-03-08T11:11:52;95554.97;;;17.69;61.02
15229;BME280;7717;47.792;12.076;2024-03-08T11:14:43;95570.16;;;15.95;51.38
15229;BME280;7717;47.792;12.076;2024-03-08T11:17:09;95569.47;;;14.55;54.39
15229;BME280;7717;47.792;12.076;2024-03-08T11:19:35;95554.88;;;16.81;69.13
15229;BME280;7717;47.792;12.076;2024-03-08T11:22:02;95553.31;;;17.03;61.21
15229;BME280;7717;47.792;12.076;2024-03-08T11:24:36;95540.66;;;17.40;48.54
15229;BME280;7717;47.792;12.076;2024-03-08T11:27:03;95530.22;;;17.27;64.92
15229;BME280;7717;47.792;12.076;2024-03-08T11:32:16;95536.03;;;17.47;43.49
15229;BME280;7717;47.792;12.076;2024-03-08T11:34:50;95531.63;;;18.23;54.71
15229;BME280;7717;47.792;12.076;2024-03-08T11:37:17;95531.13;;;17.33;62.96
15229;BME280;7717;47.792;12.076;2024-03-08T11:39:53;95532.31;;;18.30;51.10
15229;BME280;7717;47.792;12.076;2024-03-08T11:42:24;95527.84;;;18.07;60.82
15229;BME280;7717;47.792;12.076;2024-03-08T11:44:52;95528.88;;;18.06;61.59
15229;BME280;7717;47.792;12.076;2024-03-08T11:47:18;95517.97;;;17.73;55.58
15229;BME280;7717;47.792;12.076;2024-03-08T11:49:45;95521.81;;;16.16;57.39
15229;BME280;7717;47.792;12.076;2024-03-08T11:52:14;95520.53;;;17.68;68.75
15229;BME280;7717;47.792;12.076;2024-03-08T11:54:41;95524.59;;;15.66;46.20
15229;BME280;7717;47.792;12.076;2024-03-08T11:57:07;95506.88;;;16.33;58.02
15229;BME280;7717;47.792;12.076;2024-03-08T11:59:35;95499.03;;;16.86;53.19
15229;BME280;7717;47.792;12.076;2024-03-08T12:02:03;95502.72;;;15.82;47.80
15229;BME280;7717;47.792;12.076;2024-03-08T12:04:29;95504.31;;;16.75;59.53
15229;BME280;7717;47.792;12.076;2024-03-08T12:06:59;95496.63;;;17.84;61.11
15229;BME280;7717;47.792;12.076;2024-03-08T12:09:27;95495.94;;;17.77;59.56
15229;BME280;7717;47.792;12.076;2024-03-08T12:11:53;95485.97;;;19.21;63.15
15229;BME280;7717;47.792;12.076;2024-03-08T12:14:18;95487.50;;;19.17;66.46
15229;BME280;7717;47.792;12.076;2024-03-08T12:16:44;95487.28;;;18.62;70.37
15229;BME280;7717;47.792;12.076;2024-03-08T12:19:10;95484.59;;;16.09;44.24
15229;BME280;7717;47.792;12.076;2024-03-08T12:21:36;95443.88;;;16.98;59.20
15229;BME280;7717;47.792;12.076;2024-03-08T12:24:08;95465.47;;;19.27;47.10
15229;BME280;7717;47.792;12.076;2024-03-08T12:26:38;95467.78;;;18.61;48.03
15229;BME280;7717;47.792;12.076;2024-03-08T12:29:21;95467.97;;;19.00;43.41
15229;BME280;7717;47.792;12.076;2024-03-08T12:31:54;95467.84;;;17.86;45.64
15229;BME280;7717;47.792;12.076;2024-03-08T12:34:21;95462.44;;;18.61;68.30
15229;BME280;7717;47.792;12.076;2024-03-08T12:36:48;95449.50;;;18.70;55.08
15229;BME280;7717;47.792;12.076;2024-03-08T12:39:16;95450.66;;;17.94;58.00
15229;BME280;7717;47.792;12.076;2024-03-08T12:41:43;95448.94;;;18.28;60.63
15229;BME280;7717;47.792;12.076;2024-03-08T12:44:09;95431.84;;;19.48;65.60
15229;BME280;7717;47.792;12.076;2024-03-08T12:46:37;95436.72;;;18.89;52.47
15229;BME280;7717;47.792;12.076;2024-03-08T12:49:09;95445.91;;;17.26;57.00
15229;BME280;7717;47.792;12.076;2024-03-08T12:51:38;95428.53;;;18.95;69.66
15229;BME280;7717;47.792;12.076;2024-03-08T12:54:07;95440.59;;;18.53;43.96
15229;BME280;7717;47.792;12.076;2024-03-08T12:56:34;95418.56;;;18.74;65.15
15229;BME280;7717;47.792;12.076;2024-03-08T12:59:01;95422.19;;;19.68;52.81
15229;BME280;7717;47.792;12.076;2024-03-08T13:01:27;95419.63;;;19.57;60.44
15229;BME280;7717;47.792;12.076;2024-03-08T13:03:53;95418.81;;;19.73;57.17